sensor_id;sensor_type;location;lat;lon;timestamp;temperature;humidity
84176;DHT22;74306;40.114;18.304;2023-12-20T00:02:07;9.20;81.80
84176;DHT22;74306;40.114;18.304;2023-12-20T00:04:37;9.10;81.70
84176;DHT22;74306;40.114;18.304;2023-12-20T00:07:06;9.10;81.50
84176;DHT22;74306;40.114;18.304;2023-12-20T00:09:37;9.10;81.60
84176;DHT22;74306;40.114;18.304;2023-12-20T00:12:06;9.00;81.50
84176;DHT22;74306;40.114;18.304;2023-12-20T00:14:36;9.00;81.40
84176;DHT22;74306;40.114;18.304;2023-12-20T00:17:06;8.90;81.60
84176;DHT22;74306;40.114;18.304;2023-12-20T00:19:35;8.90;81.70
84176;DHT22;74306;40.114;18.304;2023-12-20T00:22:05;8.90;81.40
84176;DHT22;74306;40.114;18.304;2023-12-20T00:24:34;8.90;81.30
84176;DHT22;74306;40.114;18.304;2023-12-20T00:27:05;8.90;81.40
84176;DHT22;74306;40.114;18.304;2023-12-20T00:29:34;8.90;81.10
84176;DHT22;74306;40.114;18.304;2023-12-20T00:32:04;8.80;81.00
84176;DHT22;74306;40.114;18.304;2023-12-20T00:34:33;8.80;81.10
84176;DHT22;74306;40.114;18.304;2023-12-20T00:37:03;8.80;81.00
84176;DHT22;74306;40.114;18.304;2023-12-20T00:39:33;8.70;80.70
84176;DHT22;74306;40.114;18.304;2023-12-20T00:42:03;8.60;80.80
84176;DHT22;74306;40.114;18.304;2023-12-20T00:44:33;8.60;80.50
84176;DHT22;74306;40.114;18.304;2023-12-20T00:47:03;8.50;80.50
84176;DHT22;74306;40.114;18.304;2023-12-20T00:49:32;8.40;80.70
84176;DHT22;74306;40.114;18.304;2023-12-20T00:52:02;8.30;80.70
84176;DHT22;74306;40.114;18.304;2023-12-20T00:54:31;8.20;81.10
84176;DHT22;74306;40.114;18.304;2023-12-20T00:57:00;8.20;81.40
84176;DHT22;74306;40.114;18.304;2023-12-20T00:59:30;8.20;81.40
84176;DHT22;74306;40.114;18.304;2023-12-20T01:02:00;8.20;81.50
84176;DHT22;74306;40.114;18.304;2023-12-20T01:04:30;8.10;81.40
84176;DHT22;74306;40.114;18.304;2023-12-20T01:06:59;8.00;81.40
84176;DHT22;74306;40.114;18.304;2023-12-20T01:09:29;8.10;81.90
84176;DHT22;74306;40.114;18.304;2023-12-20T01:11:58;8.00;81.70
84176;DHT22;74306;40.114;18.304;2023-12-20T01:14:27;7.80;82.10
84176;DHT22;74306;40.114;18.304;2023-12-20T01:16:57;7.90;82.40
84176;DHT22;74306;40.114;18.304;2023-12-20T01:19:27;7.90;82.40
84176;DHT22;74306;40.114;18.304;2023-12-20T01:21:58;7.90;82.10
84176;DHT22;74306;40.114;18.304;2023-12-20T01:24:28;7.90;82.20
84176;DHT22;74306;40.114;18.304;2023-12-20T01:26:58;7.90;82.30
84176;DHT22;74306;40.114;18.304;2023-12-20T01:29:27;7.90;82.10
84176;DHT22;74306;40.114;18.304;2023-12-20T01:31:57;7.90;82.20
84176;DHT22;74306;40.114;18.304;2023-12-20T01:34:27;8.10;82.10
84176;DHT22;74306;40.114;18.304;2023-12-20T01:36:57;8.10;82.00
84176;DHT22;74306;40.114;18.304;2023-12-20T01:39:26;8.20;81.80
84176;DHT22;74306;40.114;18.304;2023-12-20T01:41:56;8.20;81.70
84176;DHT22;74306;40.114;18.304;2023-12-20T01:44:25;8.20;81.60
84176;DHT22;74306;40.114;18.304;2023-12-20T01:46:55;8.20;81.50
84176;DHT22;74306;40.114;18.304;2023-12-20T01:49:26;8.20;81.40
84176;DHT22;74306;40.114;18.304;2023-12-20T01:51:56;8.10;81.20
84176;DHT22;74306;40.114;18.304;2023-12-20T01:54:26;8.10;81.30
84176;DHT22;74306;40.114;18.304;2023-12-20T01:56:55;8.00;81.40
84176;DHT22;74306;40.114;18.304;2023-12-20T01:59:25;8.10;81.20
84176;DHT22;74306;40.114;18.304;2023-12-20T02:01:55;8.00;81.10
84176;DHT22;74306;40.114;18.304;2023-12-20T02:04:26;7.90;81.00
84176;DHT22;74306;40.114;18.304;2023-12-20T02:06:56;7.90;80.70
84176;DHT22;74306;40.114;18.304;2023-12-20T02:09:27;7.80;80.80
84176;DHT22;74306;40.114;18.304;2023-12-20T02:11:58;7.80;80.80
84176;DHT22;74306;40.114;18.304;2023-12-20T02:14:28;7.80;80.90
84176;DHT22;74306;40.114;18.304;2023-12-20T02:16:57;7.70;81.20
84176;DHT22;74306;40.114;18.304;2023-12-20T02:19:28;7.70;81.30
84176;DHT22;74306;40.114;18.304;2023-12-20T02:22:08;7.80;81.10
84176;DHT22;74306;40.114;18.304;2023-12-20T02:24:38;7.70;80.80
84176;DHT22;74306;40.114;18.304;2023-12-20T02:27:09;7.60;80.90
84176;DHT22;74306;40.114;18.304;2023-12-20T02:29:38;7.60;80.80
84176;DHT22;74306;40.114;18.304;2023-12-20T02:32:07;7.50;80.90
84176;DHT22;74306;40.114;18.304;2023-12-20T02:34:37;7.40;81.40
84176;DHT22;74306;40.114;18.304;2023-12-20T02:37:08;7.50;81.60
84176;DHT22;74306;40.114;18.304;2023-12-20T02:39:37;7.50;81.50
84176;DHT22;74306;40.114;18.304;2023-12-20T02:42:07;7.50;81.50
84176;DHT22;74306;40.114;18.304;2023-12-20T02:44:37;7.60;81.60
84176;DHT22;74306;40.114;18.304;2023-12-20T02:47:07;7.50;81.30
84176;DHT22;74306;40.114;18.304;2023-12-20T02:49:36;7.60;81.50
84176;DHT22;74306;40.114;18.304;2023-12-20T02:52:06;7.60;81.50
84176;DHT22;74306;40.114;18.304;2023-12-20T02:54:36;7.70;81.50
84176;DHT22;74306;40.114;18.304;2023-12-20T02:57:06;7.60;81.50
84176;DHT22;74306;40.114;18.304;2023-12-20T02:59:36;7.60;81.30
84176;DHT22;74306;40.114;18.304;2023-12-20T03:02:05;7.60;81.40
84176;DHT22;74306;40.114;18.304;2023-12-20T03:04:34;7.60;81.40
84176;DHT22;74306;40.114;18.304;2023-12-20T03:07:04;7.60;81.20
84176;DHT22;74306;40.114;18.304;2023-12-20T03:09:33;7.50;81.10
84176;DHT22;74306;40.114;18.304;2023-12-20T03:12:07;7.50;82.00
84176;DHT22;74306;40.114;18.304;2023-12-20T03:14:36;7.60;82.30
84176;DHT22;74306;40.114;18.304;2023-12-20T03:17:05;7.60;82.50
84176;DHT22;74306;40.114;18.304;2023-12-20T03:19:35;7.60;82.40
84176;DHT22;74306;40.114;18.304;2023-12-20T03:22:04;7.70;82.40
84176;DHT22;74306;40.114;18.304;2023-12-20T03:24:33;7.80;82.40
84176;DHT22;74306;40.114;18.304;2023-12-20T03:27:03;7.90;82.40
84176;DHT22;74306;40.114;18.304;2023-12-20T03:29:34;8.00;82.10
84176;DHT22;74306;40.114;18.304;2023-12-20T03:32:04;8.00;81.90
84176;DHT22;74306;40.114;18.304;2023-12-20T03:34:33;8.00;81.60
84176;DHT22;74306;40.114;18.304;2023-12-20T03:37:03;8.00;81.70
84176;DHT22;74306;40.114;18.304;2023-12-20T03:39:32;8.00;82.80
84176;DHT22;74306;40.114;18.304;2023-12-20T03:42:01;8.10;82.80
84176;DHT22;74306;40.114;18.304;2023-12-20T03:44:31;8.00;83.30
84176;DHT22;74306;40.114;18.304;2023-12-20T03:47:01;8.00;84.00
84176;DHT22;74306;40.114;18.304;2023-12-20T03:49:31;8.00;84.40
84176;DHT22;74306;40.114;18.304;2023-12-20T03:52:00;8.10;84.30
84176;DHT22;74306;40.114;18.304;2023-12-20T03:54:29;8.20;84.20
84176;DHT22;74306;40.114;18.304;2023-12-20T03:56:59;8.30;84.10
84176;DHT22;74306;40.114;18.304;2023-12-20T03:59:28;8.40;83.80
84176;DHT22;74306;40.114;18.304;2023-12-20T04:01:57;8.50;83.20
84176;DHT22;74306;40.114;18.304;2023-12-20T04:04:28;8.50;82.70
84176;DHT22;74306;40.114;18.304;2023-12-20T04:06:57;8.40;82.20
84176;DHT22;74306;40.114;18.304;2023-12-20T04:09:27;8.40;82.10
84176;DHT22;74306;40.114;18.304;2023-12-20T04:11:56;8.30;82.00
84176;DHT22;74306;40.114;18.304;2023-12-20T04:14:25;8.30;82.00
84176;DHT22;74306;40.114;18.304;2023-12-20T04:16:55;8.30;81.60
84176;DHT22;74306;40.114;18.304;2023-12-20T04:19:24;8.20;81.40
84176;DHT22;74306;40.114;18.304;2023-12-20T04:21:55;8.20;81.30
84176;DHT22;74306;40.114;18.304;2023-12-20T04:24:24;8.20;81.30
84176;DHT22;74306;40.114;18.304;2023-12-20T04:26:53;8.20;81.10
84176;DHT22;74306;40.114;18.304;2023-12-20T04:29:24;8.20;81.40
84176;DHT22;74306;40.114;18.304;2023-12-20T04:31:53;8.10;80.90
84176;DHT22;74306;40.114;18.304;2023-12-20T04:34:23;8.10;81.20
84176;DHT22;74306;40.114;18.304;2023-12-20T04:36:54;8.10;81.30
84176;DHT22;74306;40.114;18.304;2023-12-20T04:39:23;8.10;81.30
84176;DHT22;74306;40.114;18.304;2023-12-20T04:41:53;8.00;81.30
84176;DHT22;74306;40.114;18.304;2023-12-20T04:44:22;7.90;81.50
84176;DHT22;74306;40.114;18.304;2023-12-20T04:46:51;8.10;81.40
84176;DHT22;74306;40.114;18.304;2023-12-20T04:49:21;8.10;81.50
84176;DHT22;74306;40.114;18.304;2023-12-20T04:51:50;8.10;81.40
84176;DHT22;74306;40.114;18.304;2023-12-20T04:54:21;8.10;81.30
84176;DHT22;74306;40.114;18.304;2023-12-20T04:56:50;8.00;81.60
84176;DHT22;74306;40.114;18.304;2023-12-20T04:59:19;8.00;81.80
84176;DHT22;74306;40.114;18.304;2023-12-20T05:01:49;8.00;81.60
84176;DHT22;74306;40.114;18.304;2023-12-20T05:04:18;7.90;81.70
84176;DHT22;74306;40.114;18.304;2023-12-20T05:06:49;7.90;81.20
84176;DHT22;74306;40.114;18.304;2023-12-20T05:09:18;7.70;81.60
84176;DHT22;74306;40.114;18.304;2023-12-20T05:11:49;7.70;81.90
84176;DHT22;74306;40.114;18.304;2023-12-20T05:14:20;7.70;82.20
84176;DHT22;74306;40.114;18.304;2023-12-20T05:16:49;7.70;82.00
84176;DHT22;74306;40.114;18.304;2023-12-20T05:19:18;7.70;82.20
84176;DHT22;74306;40.114;18.304;2023-12-20T05:21:47;7.80;82.00
84176;DHT22;74306;40.114;18.304;2023-12-20T05:24:17;7.70;81.70
84176;DHT22;74306;40.114;18.304;2023-12-20T05:26:46;7.70;81.90
84176;DHT22;74306;40.114;18.304;2023-12-20T05:29:18;7.60;82.20
84176;DHT22;74306;40.114;18.304;2023-12-20T05:31:48;7.70;82.10
84176;DHT22;74306;40.114;18.304;2023-12-20T05:34:17;7.70;82.20
84176;DHT22;74306;40.114;18.304;2023-12-20T05:36:47;7.60;82.20
84176;DHT22;74306;40.114;18.304;2023-12-20T05:39:16;7.60;82.20
84176;DHT22;74306;40.114;18.304;2023-12-20T05:41:45;7.60;82.60
84176;DHT22;74306;40.114;18.304;2023-12-20T05:44:14;7.60;82.70
84176;DHT22;74306;40.114;18.304;2023-12-20T05:46:45;7.70;82.50
84176;DHT22;74306;40.114;18.304;2023-12-20T05:49:14;7.50;81.90
84176;DHT22;74306;40.114;18.304;2023-12-20T05:51:44;7.40;82.00
84176;DHT22;74306;40.114;18.304;2023-12-20T05:54:13;7.40;82.30
84176;DHT22;74306;40.114;18.304;2023-12-20T05:56:43;7.10;83.50
84176;DHT22;74306;40.114;18.304;2023-12-20T05:59:12;7.00;84.50
84176;DHT22;74306;40.114;18.304;2023-12-20T06:01:41;7.10;84.50
84176;DHT22;74306;40.114;18.304;2023-12-20T06:04:12;7.20;84.30
84176;DHT22;74306;40.114;18.304;2023-12-20T06:06:42;7.30;84.30
84176;DHT22;74306;40.114;18.304;2023-12-20T06:09:12;7.30;83.90
84176;DHT22;74306;40.114;18.304;2023-12-20T06:11:41;7.30;84.40
84176;DHT22;74306;40.114;18.304;2023-12-20T06:14:11;7.20;84.80
84176;DHT22;74306;40.114;18.304;2023-12-20T06:16:40;7.20;85.10
84176;DHT22;74306;40.114;18.304;2023-12-20T06:19:09;7.30;85.20
84176;DHT22;74306;40.114;18.304;2023-12-20T06:21:40;7.30;84.80
84176;DHT22;74306;40.114;18.304;2023-12-20T06:24:11;7.20;85.10
84176;DHT22;74306;40.114;18.304;2023-12-20T06:26:41;7.20;85.40
84176;DHT22;74306;40.114;18.304;2023-12-20T06:29:11;7.20;85.40
84176;DHT22;74306;40.114;18.304;2023-12-20T06:31:41;7.20;85.40
84176;DHT22;74306;40.114;18.304;2023-12-20T06:34:10;7.30;85.60
84176;DHT22;74306;40.114;18.304;2023-12-20T06:36:41;7.40;85.40
84176;DHT22;74306;40.114;18.304;2023-12-20T06:39:09;7.40;85.20
84176;DHT22;74306;40.114;18.304;2023-12-20T06:41:40;7.50;85.20
84176;DHT22;74306;40.114;18.304;2023-12-20T06:44:12;7.70;85.20
84176;DHT22;74306;40.114;18.304;2023-12-20T06:46:41;7.80;85.10
84176;DHT22;74306;40.114;18.304;2023-12-20T06:49:10;7.90;85.00
84176;DHT22;74306;40.114;18.304;2023-12-20T06:51:41;7.90;85.10
84176;DHT22;74306;40.114;18.304;2023-12-20T06:54:10;7.80;84.90
84176;DHT22;74306;40.114;18.304;2023-12-20T06:56:40;7.90;84.90
84176;DHT22;74306;40.114;18.304;2023-12-20T06:59:10;8.00;84.50
84176;DHT22;74306;40.114;18.304;2023-12-20T07:01:39;8.00;84.70
84176;DHT22;74306;40.114;18.304;2023-12-20T07:04:08;8.10;85.00
84176;DHT22;74306;40.114;18.304;2023-12-20T07:06:38;8.30;84.70
84176;DHT22;74306;40.114;18.304;2023-12-20T07:09:09;8.40;84.40
84176;DHT22;74306;40.114;18.304;2023-12-20T07:11:41;8.40;84.10
84176;DHT22;74306;40.114;18.304;2023-12-20T07:14:10;8.40;83.90
84176;DHT22;74306;40.114;18.304;2023-12-20T07:16:39;8.40;83.90
84176;DHT22;74306;40.114;18.304;2023-12-20T07:19:09;8.30;84.10
84176;DHT22;74306;40.114;18.304;2023-12-20T07:21:38;8.40;84.20
84176;DHT22;74306;40.114;18.304;2023-12-20T07:24:09;8.40;84.10
84176;DHT22;74306;40.114;18.304;2023-12-20T07:26:38;8.50;84.10
84176;DHT22;74306;40.114;18.304;2023-12-20T07:29:08;8.80;83.90
84176;DHT22;74306;40.114;18.304;2023-12-20T07:31:37;8.80;83.80
84176;DHT22;74306;40.114;18.304;2023-12-20T07:34:07;8.80;84.10
84176;DHT22;74306;40.114;18.304;2023-12-20T07:36:36;8.80;84.10
84176;DHT22;74306;40.114;18.304;2023-12-20T07:39:05;8.90;84.10
84176;DHT22;74306;40.114;18.304;2023-12-20T07:41:36;9.00;83.80
84176;DHT22;74306;40.114;18.304;2023-12-20T07:44:06;8.90;84.10
84176;DHT22;74306;40.114;18.304;2023-12-20T07:46:36;9.10;84.40
84176;DHT22;74306;40.114;18.304;2023-12-20T07:49:05;9.20;84.20
84176;DHT22;74306;40.114;18.304;2023-12-20T07:51:36;9.30;84.00
84176;DHT22;74306;40.114;18.304;2023-12-20T07:54:05;9.40;83.70
84176;DHT22;74306;40.114;18.304;2023-12-20T07:56:37;9.40;84.00
84176;DHT22;74306;40.114;18.304;2023-12-20T07:59:07;9.50;83.90
84176;DHT22;74306;40.114;18.304;2023-12-20T08:01:42;9.50;83.60
84176;DHT22;74306;40.114;18.304;2023-12-20T08:04:11;9.50;83.90
84176;DHT22;74306;40.114;18.304;2023-12-20T08:06:41;9.60;83.70
84176;DHT22;74306;40.114;18.304;2023-12-20T08:09:10;9.60;83.70
84176;DHT22;74306;40.114;18.304;2023-12-20T08:11:44;9.70;83.60
84176;DHT22;74306;40.114;18.304;2023-12-20T08:14:14;9.70;83.90
84176;DHT22;74306;40.114;18.304;2023-12-20T08:16:44;9.80;84.20
84176;DHT22;74306;40.114;18.304;2023-12-20T08:19:13;9.80;84.00
84176;DHT22;74306;40.114;18.304;2023-12-20T08:21:42;9.80;84.40
84176;DHT22;74306;40.114;18.304;2023-12-20T08:24:12;10.10;84.30
84176;DHT22;74306;40.114;18.304;2023-12-20T08:26:42;10.30;83.90
84176;DHT22;74306;40.114;18.304;2023-12-20T08:29:13;10.50;83.40
84176;DHT22;74306;40.114;18.304;2023-12-20T08:31:42;10.50;82.90
84176;DHT22;74306;40.114;18.304;2023-12-20T08:34:12;10.60;83.30
84176;DHT22;74306;40.114;18.304;2023-12-20T08:36:42;10.80;83.20
84176;DHT22;74306;40.114;18.304;2023-12-20T08:39:12;10.70;83.00
84176;DHT22;74306;40.114;18.304;2023-12-20T08:41:43;10.80;83.10
84176;DHT22;74306;40.114;18.304;2023-12-20T08:44:12;10.90;83.40
84176;DHT22;74306;40.114;18.304;2023-12-20T08:46:42;11.20;83.10
84176;DHT22;74306;40.114;18.304;2023-12-20T08:49:12;11.30;82.50
84176;DHT22;74306;40.114;18.304;2023-12-20T08:51:42;11.40;82.80
84176;DHT22;74306;40.114;18.304;2023-12-20T08:54:11;11.50;82.50
84176;DHT22;74306;40.114;18.304;2023-12-20T08:56:41;11.70;82.50
84176;DHT22;74306;40.114;18.304;2023-12-20T08:59:12;11.80;82.00
84176;DHT22;74306;40.114;18.304;2023-12-20T09:01:42;11.90;81.90
84176;DHT22;74306;40.114;18.304;2023-12-20T09:04:11;11.90;81.40
84176;DHT22;74306;40.114;18.304;2023-12-20T09:06:40;11.90;81.60
84176;DHT22;74306;40.114;18.304;2023-12-20T09:09:10;12.00;81.70
84176;DHT22;74306;40.114;18.304;2023-12-20T09:11:41;12.00;81.70
84176;DHT22;74306;40.114;18.304;2023-12-20T09:14:12;12.10;82.00
84176;DHT22;74306;40.114;18.304;2023-12-20T09:16:41;12.20;82.20
84176;DHT22;74306;40.114;18.304;2023-12-20T09:19:11;12.30;81.90
84176;DHT22;74306;40.114;18.304;2023-12-20T09:21:40;12.40;82.20
84176;DHT22;74306;40.114;18.304;2023-12-20T09:24:11;12.30;82.30
84176;DHT22;74306;40.114;18.304;2023-12-20T09:26:40;12.40;82.30
84176;DHT22;74306;40.114;18.304;2023-12-20T09:29:11;12.50;82.60
84176;DHT22;74306;40.114;18.304;2023-12-20T09:31:43;12.60;82.70
84176;DHT22;74306;40.114;18.304;2023-12-20T09:34:15;12.90;82.60
84176;DHT22;74306;40.114;18.304;2023-12-20T09:36:45;13.10;82.30
84176;DHT22;74306;40.114;18.304;2023-12-20T09:39:16;13.10;82.50
84176;DHT22;74306;40.114;18.304;2023-12-20T09:41:51;13.10;82.20
84176;DHT22;74306;40.114;18.304;2023-12-20T09:44:25;13.20;82.40
84176;DHT22;74306;40.114;18.304;2023-12-20T09:46:55;13.30;82.80
84176;DHT22;74306;40.114;18.304;2023-12-20T09:49:27;13.60;83.10
84176;DHT22;74306;40.114;18.304;2023-12-20T09:51:57;13.90;82.80
84176;DHT22;74306;40.114;18.304;2023-12-20T09:54:28;14.60;82.30
84176;DHT22;74306;40.114;18.304;2023-12-20T09:56:59;15.30;81.70
84176;DHT22;74306;40.114;18.304;2023-12-20T09:59:30;16.10;80.40
84176;DHT22;74306;40.114;18.304;2023-12-20T10:02:02;16.90;78.60
84176;DHT22;74306;40.114;18.304;2023-12-20T10:04:32;17.60;77.10
84176;DHT22;74306;40.114;18.304;2023-12-20T10:07:03;18.00;74.20
84176;DHT22;74306;40.114;18.304;2023-12-20T10:09:34;18.30;73.60
84176;DHT22;74306;40.114;18.304;2023-12-20T10:12:04;18.80;73.70
84176;DHT22;74306;40.114;18.304;2023-12-20T10:14:36;19.50;71.20
84176;DHT22;74306;40.114;18.304;2023-12-20T10:17:06;20.20;67.60
84176;DHT22;74306;40.114;18.304;2023-12-20T10:19:36;20.90;66.10
84176;DHT22;74306;40.114;18.304;2023-12-20T10:22:06;21.30;62.90
84176;DHT22;74306;40.114;18.304;2023-12-20T10:24:35;21.60;62.40
84176;DHT22;74306;40.114;18.304;2023-12-20T10:27:06;21.60;59.50
84176;DHT22;74306;40.114;18.304;2023-12-20T10:29:37;22.40;58.60
84176;DHT22;74306;40.114;18.304;2023-12-20T10:32:22;22.00;58.00
84176;DHT22;74306;40.114;18.304;2023-12-20T10:34:53;21.40;57.70
84176;DHT22;74306;40.114;18.304;2023-12-20T10:37:22;21.70;58.50
84176;DHT22;74306;40.114;18.304;2023-12-20T10:39:53;21.80;54.60
84176;DHT22;74306;40.114;18.304;2023-12-20T10:42:26;21.70;53.30
84176;DHT22;74306;40.114;18.304;2023-12-20T10:44:58;21.40;54.40
84176;DHT22;74306;40.114;18.304;2023-12-20T10:47:28;22.50;53.00
84176;DHT22;74306;40.114;18.304;2023-12-20T10:49:59;23.20;51.10
84176;DHT22;74306;40.114;18.304;2023-12-20T10:52:32;23.30;49.40
84176;DHT22;74306;40.114;18.304;2023-12-20T10:55:04;23.60;49.60
84176;DHT22;74306;40.114;18.304;2023-12-20T10:57:35;24.40;47.70
84176;DHT22;74306;40.114;18.304;2023-12-20T11:00:09;24.60;46.40
84176;DHT22;74306;40.114;18.304;2023-12-20T11:02:44;24.50;45.70
84176;DHT22;74306;40.114;18.304;2023-12-20T11:05:22;23.30;48.10
84176;DHT22;74306;40.114;18.304;2023-12-20T11:08:00;22.70;49.80
84176;DHT22;74306;40.114;18.304;2023-12-20T11:10:36;23.10;49.30
84176;DHT22;74306;40.114;18.304;2023-12-20T11:13:10;23.40;48.90
84176;DHT22;74306;40.114;18.304;2023-12-20T11:15:43;23.50;49.10
84176;DHT22;74306;40.114;18.304;2023-12-20T11:18:15;23.60;48.10
84176;DHT22;74306;40.114;18.304;2023-12-20T11:20:44;23.40;47.90
84176;DHT22;74306;40.114;18.304;2023-12-20T11:23:13;23.60;48.40
84176;DHT22;74306;40.114;18.304;2023-12-20T11:25:48;23.20;48.20
84176;DHT22;74306;40.114;18.304;2023-12-20T11:28:21;22.80;49.90
84176;DHT22;74306;40.114;18.304;2023-12-20T11:30:54;23.20;49.20
84176;DHT22;74306;40.114;18.304;2023-12-20T11:33:25;22.80;49.70
84176;DHT22;74306;40.114;18.304;2023-12-20T11:35:55;23.30;48.70
84176;DHT22;74306;40.114;18.304;2023-12-20T11:38:25;23.30;48.40
84176;DHT22;74306;40.114;18.304;2023-12-20T11:40:55;22.40;50.00
84176;DHT22;74306;40.114;18.304;2023-12-20T11:43:31;22.50;51.30
84176;DHT22;74306;40.114;18.304;2023-12-20T11:46:06;22.70;51.40
84176;DHT22;74306;40.114;18.304;2023-12-20T11:48:38;22.80;51.40
84176;DHT22;74306;40.114;18.304;2023-12-20T11:51:12;22.60;51.40
84176;DHT22;74306;40.114;18.304;2023-12-20T11:53:42;21.70;51.40
84176;DHT22;74306;40.114;18.304;2023-12-20T11:56:11;20.90;53.40
84176;DHT22;74306;40.114;18.304;2023-12-20T11:58:41;20.60;54.60
84176;DHT22;74306;40.114;18.304;2023-12-20T12:01:12;20.60;55.00
84176;DHT22;74306;40.114;18.304;2023-12-20T12:03:42;20.30;54.50
84176;DHT22;74306;40.114;18.304;2023-12-20T12:06:12;19.70;56.00
84176;DHT22;74306;40.114;18.304;2023-12-20T12:08:41;19.30;57.70
84176;DHT22;74306;40.114;18.304;2023-12-20T12:11:11;19.20;58.60
84176;DHT22;74306;40.114;18.304;2023-12-20T12:13:40;19.00;59.20
84176;DHT22;74306;40.114;18.304;2023-12-20T12:16:12;18.90;59.60
84176;DHT22;74306;40.114;18.304;2023-12-20T12:18:41;19.10;59.10
84176;DHT22;74306;40.114;18.304;2023-12-20T12:21:18;19.20;59.00
84176;DHT22;74306;40.114;18.304;2023-12-20T12:23:49;19.20;58.70
84176;DHT22;74306;40.114;18.304;2023-12-20T12:26:18;19.30;58.50
84176;DHT22;74306;40.114;18.304;2023-12-20T12:28:48;19.20;58.60
84176;DHT22;74306;40.114;18.304;2023-12-20T12:31:21;18.80;58.90
84176;DHT22;74306;40.114;18.304;2023-12-20T12:33:51;18.50;59.90
84176;DHT22;74306;40.114;18.304;2023-12-20T12:36:21;18.60;60.10
84176;DHT22;74306;40.114;18.304;2023-12-20T12:38:50;18.60;60.10
84176;DHT22;74306;40.114;18.304;2023-12-20T12:41:20;18.70;60.10
84176;DHT22;74306;40.114;18.304;2023-12-20T12:43:49;18.80;59.70
84176;DHT22;74306;40.114;18.304;2023-12-20T12:46:18;19.00;59.50
84176;DHT22;74306;40.114;18.304;2023-12-20T12:48:49;19.00;59.20
84176;DHT22;74306;40.114;18.304;2023-12-20T12:51:19;18.80;59.40
84176;DHT22;74306;40.114;18.304;2023-12-20T12:53:48;18.40;59.40
84176;DHT22;74306;40.114;18.304;2023-12-20T12:56:17;18.30;60.00
84176;DHT22;74306;40.114;18.304;2023-12-20T12:58:47;18.30;59.80
84176;DHT22;74306;40.114;18.304;2023-12-20T13:01:16;18.20;60.00
84176;DHT22;74306;40.114;18.304;2023-12-20T13:03:45;18.30;60.50
84176;DHT22;74306;40.114;18.304;2023-12-20T13:06:16;18.50;59.80
84176;DHT22;74306;40.114;18.304;2023-12-20T13:08:45;18.90;59.20
84176;DHT22;74306;40.114;18.304;2023-12-20T13:11:15;19.30;58.70
84176;DHT22;74306;40.114;18.304;2023-12-20T13:13:44;19.80;56.90
84176;DHT22;74306;40.114;18.304;2023-12-20T13:16:14;20.50;54.60
84176;DHT22;74306;40.114;18.304;2023-12-20T13:18:44;21.20;52.80
84176;DHT22;74306;40.114;18.304;2023-12-20T13:21:13;21.80;50.80
84176;DHT22;74306;40.114;18.304;2023-12-20T13:23:44;22.40;50.30
84176;DHT22;74306;40.114;18.304;2023-12-20T13:26:13;22.60;48.70
84176;DHT22;74306;40.114;18.304;2023-12-20T13:28:43;22.00;49.70
84176;DHT22;74306;40.114;18.304;2023-12-20T13:31:12;21.30;50.10
84176;DHT22;74306;40.114;18.304;2023-12-20T13:33:42;20.40;50.10
84176;DHT22;74306;40.114;18.304;2023-12-20T13:36:11;19.50;50.30
84176;DHT22;74306;40.114;18.304;2023-12-20T13:38:41;19.00;52.20
84176;DHT22;74306;40.114;18.304;2023-12-20T13:41:11;18.70;52.40
84176;DHT22;74306;40.114;18.304;2023-12-20T13:43:41;18.30;53.60
84176;DHT22;74306;40.114;18.304;2023-12-20T13:46:10;18.10;55.00
84176;DHT22;74306;40.114;18.304;2023-12-20T13:48:40;17.80;55.70
84176;DHT22;74306;40.114;18.304;2023-12-20T13:51:09;17.50;56.80
84176;DHT22;74306;40.114;18.304;2023-12-20T13:53:38;17.40;56.70
84176;DHT22;74306;40.114;18.304;2023-12-20T13:56:08;17.40;57.20
84176;DHT22;74306;40.114;18.304;2023-12-20T13:58:38;17.30;57.10
84176;DHT22;74306;40.114;18.304;2023-12-20T14:01:09;17.20;57.50
84176;DHT22;74306;40.114;18.304;2023-12-20T14:03:39;17.10;57.90
84176;DHT22;74306;40.114;18.304;2023-12-20T14:06:09;17.00;58.40
84176;DHT22;74306;40.114;18.304;2023-12-20T14:08:38;16.80;59.20
84176;DHT22;74306;40.114;18.304;2023-12-20T14:11:07;16.80;59.40
84176;DHT22;74306;40.114;18.304;2023-12-20T14:13:38;16.80;59.50
84176;DHT22;74306;40.114;18.304;2023-12-20T14:16:07;16.80;59.50
84176;DHT22;74306;40.114;18.304;2023-12-20T14:18:38;16.80;59.90
84176;DHT22;74306;40.114;18.304;2023-12-20T14:21:08;16.60;60.70
84176;DHT22;74306;40.114;18.304;2023-12-20T14:23:38;16.50;61.00
84176;DHT22;74306;40.114;18.304;2023-12-20T14:26:07;16.40;61.10
84176;DHT22;74306;40.114;18.304;2023-12-20T14:28:43;16.40;61.20
84176;DHT22;74306;40.114;18.304;2023-12-20T14:31:12;16.40;61.40
84176;DHT22;74306;40.114;18.304;2023-12-20T14:33:42;16.40;61.50
84176;DHT22;74306;40.114;18.304;2023-12-20T14:36:11;16.30;62.00
84176;DHT22;74306;40.114;18.304;2023-12-20T14:38:40;16.30;62.20
84176;DHT22;74306;40.114;18.304;2023-12-20T14:41:10;16.20;62.50
84176;DHT22;74306;40.114;18.304;2023-12-20T14:43:40;16.20;62.70
84176;DHT22;74306;40.114;18.304;2023-12-20T14:46:11;16.10;63.00
84176;DHT22;74306;40.114;18.304;2023-12-20T14:48:40;15.90;63.30
84176;DHT22;74306;40.114;18.304;2023-12-20T14:51:09;15.80;63.90
84176;DHT22;74306;40.114;18.304;2023-12-20T14:53:39;15.70;64.90
84176;DHT22;74306;40.114;18.304;2023-12-20T14:56:10;15.60;65.00
84176;DHT22;74306;40.114;18.304;2023-12-20T14:58:39;15.50;65.50
84176;DHT22;74306;40.114;18.304;2023-12-20T15:01:10;15.50;65.80
84176;DHT22;74306;40.114;18.304;2023-12-20T15:03:39;15.30;66.30
84176;DHT22;74306;40.114;18.304;2023-12-20T15:06:09;15.30;66.80
84176;DHT22;74306;40.114;18.304;2023-12-20T15:08:39;15.20;67.20
84176;DHT22;74306;40.114;18.304;2023-12-20T15:11:09;15.10;67.50
84176;DHT22;74306;40.114;18.304;2023-12-20T15:13:38;15.10;67.90
84176;DHT22;74306;40.114;18.304;2023-12-20T15:16:07;15.10;68.10
84176;DHT22;74306;40.114;18.304;2023-12-20T15:18:38;15.00;68.40
84176;DHT22;74306;40.114;18.304;2023-12-20T15:21:07;14.90;68.60
84176;DHT22;74306;40.114;18.304;2023-12-20T15:23:37;14.80;69.00
84176;DHT22;74306;40.114;18.304;2023-12-20T15:26:06;14.80;69.20
84176;DHT22;74306;40.114;18.304;2023-12-20T15:28:36;14.80;69.70
84176;DHT22;74306;40.114;18.304;2023-12-20T15:31:05;14.60;70.20
84176;DHT22;74306;40.114;18.304;2023-12-20T15:33:34;14.70;70.20
84176;DHT22;74306;40.114;18.304;2023-12-20T15:36:06;14.60;70.60
84176;DHT22;74306;40.114;18.304;2023-12-20T15:38:35;14.70;70.60
84176;DHT22;74306;40.114;18.304;2023-12-20T15:41:06;14.70;70.40
84176;DHT22;74306;40.114;18.304;2023-12-20T15:43:36;14.60;70.70